sensor_id;sensor_type;location;lat;lon;timestamp;pressure;altitude;pressure_sealevel;temperature;humidity
49947;BME280;35839;48.662;13.300;2022-07-24T05:06:39;97732.28;;;17.57;100.00
49947;BME280;35839;48.662;13.300;2022-07-24T05:09:05;97732.59;;;17.62;100.00
49947;BME280;35839;48.662;13.300;2022-07-24T05:11:30;97731.63;;;17.85;100.00
49947;BME280;35839;48.662;13.300;2022-07-24T05:13:55;97735.16;;;17.92;100.00
49947;BME280;35839;48.662;13.300;2022-07-24T05:16:21;97739.31;;;18.01;100.00
49947;BME280;35839;48.662;13.300;2022-07-24T05:18:46;97738.66;;;18.14;100.00
49947;BME280;35839;48.662;13.300;2022-07-24T05:21:12;97740.34;;;18.22;100.00
49947;BME280;35839;48.662;13.300;2022-07-24T05:23:39;97742.09;;;18.36;100.00
49947;BME280;35839;48.662;13.300;2022-07-24T05:26:05;97742.50;;;18.33;100.00
49947;BME280;35839;48.662;13.300;2022-07-24T05:28:31;97738.31;;;18.45;100.00
49947;BME280;35839;48.662;13.300;2022-07-24T05:30:57;97746.03;;;18.40;100.00
49947;BME280;35839;48.662;13.300;2022-07-24T05:33:22;97742.47;;;18.54;100.00
49947;BME280;35839;48.662;13.300;2022-07-24T05:35:48;97751.91;;;18.64;100.00
49947;BME280;35839;48.662;13.300;2022-07-24T05:38:13;97749.50;;;18.69;100.00
49947;BME280;35839;48.662;13.300;2022-07-24T05:40:38;97749.72;;;18.67;100.00
49947;BME280;35839;48.662;13.300;2022-07-24T05:43:04;97750.72;;;18.66;100.00
49947;BME280;35839;48.662;13.300;2022-07-24T05:45:29;97753.81;;;18.70;100.00
49947;BME280;35839;48.662;13.300;2022-07-24T05:47:54;97749.00;;;18.80;100.00
49947;BME280;35839;48.662;13.300;2022-07-24T05:50:20;97748.59;;;18.77;100.00
49947;BME280;35839;48.662;13.300;2022-07-24T05:52:45;97743.78;;;18.93;100.00
49947;BME280;35839;48.662;13.300;2022-07-24T05:55:10;97740.13;;;18.94;100.00
49947;BME280;35839;48.662;13.300;2022-07-24T05:57:36;97748.72;;;18.97;100.00
49947;BME280;35839;48.662;13.300;2022-07-24T06:00:03;97745.06;;;18.98;100.00
49947;BME280;35839;48.662;13.300;2022-07-24T06:02:28;97756.09;;;19.01;100.00
49947;BME280;35839;48.662;13.300;2022-07-24T06:04:54;97755.69;;;19.04;100.00
49947;BME280;35839;48.662;13.300;2022-07-24T06:07:19;97749.66;;;19.17;100.00
49947;BME280;35839;48.662;13.300;2022-07-24T06:09:44;97762.38;;;19.28;100.00
49947;BME280;35839;48.662;13.300;2022-07-24T06:12:09;97758.34;;;19.39;100.00
49947;BME280;35839;48.662;13.300;2022-07-24T06:14:35;97755.03;;;19.30;100.00
49947;BME280;35839;48.662;13.300;2022-07-24T06:17:00;97756.34;;;19.48;100.00
49947;BME280;35839;48.662;13.300;2022-07-24T06:19:26;97753.13;;;19.59;100.00
49947;BME280;35839;48.662;13.300;2022-07-24T06:21:51;97754.47;;;19.42;100.00
49947;BME280;35839;48.662;13.300;2022-07-24T06:24:17;97755.75;;;19.52;100.00
49947;BME280;35839;48.662;13.300;2022-07-24T06:26:43;97753.13;;;19.59;100.00
49947;BME280;35839;48.662;13.300;2022-07-24T06:29:08;97751.78;;;19.76;100.00
49947;BME280;35839;48.662;13.300;2022-07-24T06:31:34;97753.63;;;19.76;100.00
49947;BME280;35839;48.662;13.300;2022-07-24T06:33:59;97750.34;;;19.81;100.00
49947;BME280;35839;48.662;13.300;2022-07-24T06:36:24;97747.16;;;20.05;100.00
49947;BME280;35839;48.662;13.300;2022-07-24T06:38:50;97752.31;;;20.27;100.00
49947;BME280;35839;48.662;13.300;2022-07-24T06:41:15;97746.56;;;20.23;100.00
49947;BME280;35839;48.662;13.300;2022-07-24T06:43:41;97752.50;;;20.32;100.00
49947;BME280;35839;48.662;13.300;2022-07-24T06:46:06;97750.06;;;20.37;100.00
49947;BME280;35839;48.662;13.300;2022-07-24T06:48:32;97748.88;;;20.59;100.00
49947;BME280;35839;48.662;13.300;2022-07-24T06:50:57;97750.47;;;20.47;100.00
49947;BME280;35839;48.662;13.300;2022-07-24T06:53:22;97744.94;;;20.55;100.00
49947;BME280;35839;48.662;13.300;2022-07-24T06:55:48;97747.44;;;20.57;100.00
49947;BME280;35839;48.662;13.300;2022-07-24T06:58:14;97751.34;;;20.68;100.00
49947;BME280;35839;48.662;13.300;2022-07-24T07:00:39;97751.72;;;20.65;100.00
49947;BME280;35839;48.662;13.300;2022-07-24T07:03:05;97750.50;;;20.80;100.00
49947;BME280;35839;48.662;13.300;2022-07-24T07:05:31;97743.75;;;20.84;100.00
49947;BME280;35839;48.662;13.300;2022-07-24T07:07:56;97746.78;;;20.95;100.00
49947;BME280;35839;48.662;13.300;2022-07-24T07:10:22;97736.94;;;21.02;100.00
49947;BME280;35839;48.662;13.300;2022-07-24T07:12:48;97743.47;;;21.13;100.00
49947;BME280;35839;48.662;13.300;2022-07-24T07:15:14;97738.97;;;21.20;100.00
49947;BME280;35839;48.662;13.300;2022-07-24T07:17:40;97738.50;;;21.43;100.00
49947;BME280;35839;48.662;13.300;2022-07-24T07:20:07;97731.94;;;21.45;100.00
49947;BME280;35839;48.662;13.300;2022-07-24T07:22:33;97731.94;;;21.45;100.00
49947;BME280;35839;48.662;13.300;2022-07-24T07:24:59;97739.69;;;21.54;100.00
49947;BME280;35839;48.662;13.300;2022-07-24T07:27:24;97742.13;;;21.62;100.00
49947;BME280;35839;48.662;13.300;2022-07-24T07:29:49;97734.81;;;21.89;100.00
49947;BME280;35839;48.662;13.300;2022-07-24T07:32:15;97741.75;;;21.97;100.00
49947;BME280;35839;48.662;13.300;2022-07-24T07:34:40;97748.19;;;22.14;100.00
49947;BME280;35839;48.662;13.300;2022-07-24T07:37:05;97749.66;;;22.10;100.00
49947;BME280;35839;48.662;13.300;2022-07-24T07:39:31;97756.34;;;22.26;100.00
49947;BME280;35839;48.662;13.300;2022-07-24T07:41:56;97749.66;;;22.10;100.00
49947;BME280;35839;48.662;13.300;2022-07-24T07:44:22;97751.25;;;22.24;100.00
49947;BME280;35839;48.662;13.300;2022-07-24T07:46:47;97754.28;;;22.28;100.00
49947;BME280;35839;48.662;13.300;2022-07-24T07:49:13;97748.53;;;22.56;100.00
49947;BME280;35839;48.662;13.300;2022-07-24T07:51:38;97758.44;;;22.74;100.00
49947;BME280;35839;48.662;13.300;2022-07-24T07:54:04;97750.88;;;22.71;100.00
49947;BME280;35839;48.662;13.300;2022-07-24T07:56:29;97753.66;;;22.83;100.00
49947;BME280;35839;48.662;13.300;2022-07-24T07:58:56;97751.34;;;23.11;100.00
49947;BME280;35839;48.662;13.300;2022-07-24T08:01:22;97751.81;;;23.27;100.00
49947;BME280;35839;48.662;13.300;2022-07-24T08:03:47;97752.47;;;23.22;100.00
49947;BME280;35839;48.662;13.300;2022-07-24T08:06:12;97752.56;;;23.34;100.00
49947;BME280;35839;48.662;13.300;2022-07-24T08:08:38;97763.22;;;23.16;100.00
49947;BME280;35839;48.662;13.300;2022-07-24T08:11:03;97758.63;;;23.41;100.00
49947;BME280;35839;48.662;13.300;2022-07-24T08:13:29;97756.03;;;23.53;100.00
49947;BME280;35839;48.662;13.300;2022-07-24T08:15:54;97754.91;;;23.61;100.00
49947;BME280;35839;48.662;13.300;2022-07-24T08:18:20;97755.50;;;23.81;100.00
49947;BME280;35839;48.662;13.300;2022-07-24T08:20:45;97757.72;;;23.84;100.00
49947;BME280;35839;48.662;13.300;2022-07-24T08:23:11;97754.59;;;23.87;100.00
49947;BME280;35839;48.662;13.300;2022-07-24T08:25:37;97755.50;;;24.11;100.00
49947;BME280;35839;48.662;13.300;2022-07-24T08:28:03;97754.34;;;24.19;100.00
49947;BME280;35839;48.662;13.300;2022-07-24T08:30:28;97756.78;;;24.09;100.00
49947;BME280;35839;48.662;13.300;2022-07-24T08:32:54;97754.94;;;24.21;100.00
49947;BME280;35839;48.662;13.300;2022-07-24T08:35:19;97755.69;;;24.40;100.00
49947;BME280;35839;48.662;13.300;2022-07-24T08:37:45;97756.56;;;24.52;100.00
49947;BME280;35839;48.662;13.300;2022-07-24T08:40:12;97753.75;;;24.59;100.00
49947;BME280;35839;48.662;13.300;2022-07-24T08:42:38;97756.91;;;24.56;100.00
49947;BME280;35839;48.662;13.300;2022-07-24T08:45:04;97751.56;;;24.68;100.00
49947;BME280;35839;48.662;13.300;2022-07-24T08:47:30;97749.25;;;24.71;100.00
49947;BME280;35839;48.662;13.300;2022-07-24T08:49:59;97748.78;;;24.98;100.00
49947;BME280;35839;48.662;13.300;2022-07-24T08:52:27;97749.25;;;24.95;100.00
49947;BME280;35839;48.662;13.300;2022-07-24T08:54:53;97747.38;;;25.07;100.00
49947;BME280;35839;48.662;13.300;2022-07-24T08:57:19;97750.06;;;25.07;100.00
49947;BME280;35839;48.662;13.300;2022-07-24T08:59:44;97754.81;;;25.40;100.00
49947;BME280;35839;48.662;13.300;2022-07-24T09:02:10;97757.38;;;25.47;100.00
49947;BME280;35839;48.662;13.300;2022-07-24T09:04:40;97745.56;;;25.60;100.00
49947;BME280;35839;48.662;13.300;2022-07-24T09:07:11;97744.97;;;25.70;96.40
49947;BME280;35839;48.662;13.300;2022-07-24T09:09:39;97745.13;;;25.80;96.39
49947;BME280;35839;48.662;13.300;2022-07-24T09:12:13;97743.38;;;25.97;96.22
49947;BME280;35839;48.662;13.300;2022-07-24T09:14:41;97745.28;;;26.14;90.02
49947;BME280;35839;48.662;13.300;2022-07-24T09:17:09;97752.59;;;26.18;86.82
49947;BME280;35839;48.662;13.300;2022-07-24T09:19:57;97739.91;;;26.31;82.85
49947;BME280;35839;48.662;13.300;2022-07-24T09:22:38;97745.13;;;26.37;72.70
49947;BME280;35839;48.662;13.300;2022-07-24T09:25:14;97750.59;;;26.42;76.90
49947;BME280;35839;48.662;13.300;2022-07-24T09:28:03;97743.81;;;26.23;76.52
49947;BME280;35839;48.662;13.300;2022-07-24T09:30:49;97743.88;;;26.57;78.00
49947;BME280;35839;48.662;13.300;2022-07-24T09:33:17;97746.53;;;26.57;73.34
49947;BME280;35839;48.662;13.300;2022-07-24T09:35:48;97748.31;;;26.85;69.80
49947;BME280;35839;48.662;13.300;2022-07-24T09:38:15;97744.81;;;26.84;64.90
49947;BME280;35839;48.662;13.300;2022-07-24T09:40:46;97744.22;;;27.16;70.36
49947;BME280;35839;48.662;13.300;2022-07-24T09:43:15;97741.13;;;27.24;70.21
49947;BME280;35839;48.662;13.300;2022-07-24T09:48:16;97739.81;;;27.49;67.73
49947;BME280;35839;48.662;13.300;2022-07-24T09:50:49;97738.00;;;27.54;66.09
49947;BME280;35839;48.662;13.300;2022-07-24T09:53:17;97734.75;;;27.52;64.07
49947;BME280;35839;48.662;13.300;2022-07-24T09:55:43;97737.81;;;27.61;62.01
49947;BME280;35839;48.662;13.300;2022-07-24T09:58:18;97741.31;;;27.40;59.96
49947;BME280;35839;48.662;13.300;2022-07-24T10:00:43;97742.81;;;27.52;55.85
49947;BME280;35839;48.662;13.300;2022-07-24T10:03:13;97734.38;;;27.66;57.42
49947;BME280;35839;48.662;13.300;2022-07-24T10:05:42;97731.38;;;27.84;52.05
49947;BME280;35839;48.662;13.300;2022-07-24T10:08:11;97730.38;;;27.07;54.23
49947;BME280;35839;48.662;13.300;2022-07-24T10:10:40;97733.38;;;27.50;57.05
49947;BME280;35839;48.662;13.300;2022-07-24T10:13:06;97721.06;;;27.54;55.92
49947;BME280;35839;48.662;13.300;2022-07-24T10:15:33;97724.00;;;28.02;55.00
49947;BME280;35839;48.662;13.300;2022-07-24T10:18:14;97725.06;;;28.28;54.98
49947;BME280;35839;48.662;13.300;2022-07-24T10:20:43;97721.38;;;28.39;55.92
49947;BME280;35839;48.662;13.300;2022-07-24T10:23:09;97715.22;;;28.76;52.64
49947;BME280;35839;48.662;13.300;2022-07-24T10:26:03;97718.41;;;28.68;48.84
49947;BME280;35839;48.662;13.300;2022-07-24T10:30:58;97717.78;;;28.93;48.73
49947;BME280;35839;48.662;13.300;2022-07-24T10:33:24;97713.16;;;28.88;46.78
49947;BME280;35839;48.662;13.300;2022-07-24T10:35:50;97714.41;;;29.13;47.24
49947;BME280;35839;48.662;13.300;2022-07-24T10:38:38;97717.66;;;29.20;45.21
49947;BME280;35839;48.662;13.300;2022-07-24T10:41:15;97711.69;;;29.13;43.25
49947;BME280;35839;48.662;13.300;2022-07-24T10:44:18;97710.22;;;29.48;38.29
49947;BME280;35839;48.662;13.300;2022-07-24T10:47:04;97710.00;;;29.65;37.97
49947;BME280;35839;48.662;13.300;2022-07-24T10:52:20;97696.59;;;29.75;43.03
49947;BME280;35839;48.662;13.300;2022-07-24T10:54:46;97696.09;;;29.93;43.26
49947;BME280;35839;48.662;13.300;2022-07-24T10:57:11;97695.59;;;29.28;43.87
49947;BME280;35839;48.662;13.300;2022-07-24T10:59:39;97696.59;;;29.95;44.77
49947;BME280;35839;48.662;13.300;2022-07-24T11:02:28;97695.38;;;29.35;41.78
49947;BME280;35839;48.662;13.300;2022-07-24T11:05:28;97686.09;;;29.89;42.08
49947;BME280;35839;48.662;13.300;2022-07-24T11:19:11;97668.72;;;29.59;37.98
49947;BME280;35839;48.662;13.300;2022-07-24T11:21:41;97671.97;;;29.61;41.84
49947;BME280;35839;48.662;13.300;2022-07-24T11:26:41;97674.75;;;29.97;38.78
49947;BME280;35839;48.662;13.300;2022-07-24T11:31:45;97664.53;;;30.45;38.06
49947;BME280;35839;48.662;13.300;2022-07-24T11:34:11;97662.88;;;30.03;38.89
49947;BME280;35839;48.662;13.300;2022-07-24T11:36:39;97656.72;;;30.33;39.03
49947;BME280;35839;48.662;13.300;2022-07-24T11:39:06;97654.28;;;30.27;40.22
49947;BME280;35839;48.662;13.300;2022-07-24T11:41:48;97656.28;;;29.53;40.68
49947;BME280;35839;48.662;13.300;2022-07-24T11:44:22;97652.31;;;29.76;39.10
49947;BME280;35839;48.662;13.300;2022-07-24T11:46:47;97648.28;;;30.04;37.74
49947;BME280;35839;48.662;13.300;2022-07-24T11:49:13;97647.72;;;30.84;39.53
49947;BME280;35839;48.662;13.300;2022-07-24T11:51:42;97646.66;;;30.75;38.44
49947;BME280;35839;48.662;13.300;2022-07-24T11:54:09;97653.31;;;31.13;39.74
49947;BME280;35839;48.662;13.300;2022-07-24T11:56:36;97634.78;;;31.46;36.89
49947;BME280;35839;48.662;13.300;2022-07-24T11:59:01;97645.88;;;31.39;38.73
49947;BME280;35839;48.662;13.300;2022-07-24T12:01:26;97630.75;;;31.38;39.06
49947;BME280;35839;48.662;13.300;2022-07-24T12:03:53;97644.72;;;32.00;38.88
49947;BME280;35839;48.662;13.300;2022-07-24T12:06:19;97642.09;;;31.45;36.00
49947;BME280;35839;48.662;13.300;2022-07-24T12:08:45;97636.22;;;31.73;35.70
49947;BME280;35839;48.662;13.300;2022-07-24T12:11:10;97641.38;;;31.74;34.43
49947;BME280;35839;48.662;13.300;2022-07-24T12:13:40;97630.56;;;31.19;35.65
49947;BME280;35839;48.662;13.300;2022-07-24T12:16:07;97632.41;;;32.18;37.50
49947;BME280;35839;48.662;13.300;2022-07-24T12:18:32;97627.09;;;32.03;36.45
49947;BME280;35839;48.662;13.300;2022-07-24T12:21:00;97621.72;;;31.58;37.07
49947;BME280;35839;48.662;13.300;2022-07-24T12:23:26;97618.88;;;31.79;36.68
49947;BME280;35839;48.662;13.300;2022-07-24T12:25:54;97610.78;;;32.13;35.83
49947;BME280;35839;48.662;13.300;2022-07-24T12:28:19;97613.41;;;31.49;34.34
49947;BME280;35839;48.662;13.300;2022-07-24T12:30:47;97619.97;;;32.12;34.48
49947;BME280;35839;48.662;13.300;2022-07-24T12:36:04;97613.91;;;31.91;33.49
49947;BME280;35839;48.662;13.300;2022-07-24T12:38:57;97614.56;;;32.70;33.15
49947;BME280;35839;48.662;13.300;2022-07-24T12:41:24;97617.78;;;32.72;34.99
49947;BME280;35839;48.662;13.300;2022-07-24T12:44:04;97606.59;;;33.03;33.79
49947;BME280;35839;48.662;13.300;2022-07-24T12:46:36;97616.50;;;33.37;32.19
49947;BME280;35839;48.662;13.300;2022-07-24T12:49:17;97610.44;;;32.49;32.11
49947;BME280;35839;48.662;13.300;2022-07-24T12:54:14;97596.06;;;32.48;32.43
49947;BME280;35839;48.662;13.300;2022-07-24T12:56:40;97596.69;;;33.17;30.62
49947;BME280;35839;48.662;13.300;2022-07-24T12:59:05;97597.94;;;33.44;33.03
49947;BME280;35839;48.662;13.300;2022-07-24T13:01:47;97602.19;;;33.88;30.98
49947;BME280;35839;48.662;13.300;2022-07-24T13:04:16;97602.22;;;34.21;32.39
49947;BME280;35839;48.662;13.300;2022-07-24T13:06:45;97602.84;;;33.42;30.89
49947;BME280;35839;48.662;13.300;2022-07-24T13:09:13;97590.72;;;33.91;29.63
49947;BME280;35839;48.662;13.300;2022-07-24T13:11:40;97588.41;;;33.66;30.73
49947;BME280;35839;48.662;13.300;2022-07-24T13:14:07;97591.25;;;33.36;31.21
49947;BME280;35839;48.662;13.300;2022-07-24T13:16:35;97591.09;;;33.85;28.88
49947;BME280;35839;48.662;13.300;2022-07-24T13:19:02;97586.50;;;32.32;32.60
49947;BME280;35839;48.662;13.300;2022-07-24T13:21:28;97576.97;;;33.69;32.18
49947;BME280;35839;48.662;13.300;2022-07-24T13:23:54;97591.56;;;31.70;32.92
49947;BME280;35839;48.662;13.300;2022-07-24T13:26:21;97579.44;;;32.60;33.17
49947;BME280;35839;48.662;13.300;2022-07-24T13:28:46;97579.84;;;32.72;32.69
49947;BME280;35839;48.662;13.300;2022-07-24T13:31:13;97580.88;;;32.77;37.04
49947;BME280;35839;48.662;13.300;2022-07-24T13:33:38;97582.88;;;32.12;33.96
49947;BME280;35839;48.662;13.300;2022-07-24T13:36:04;97580.91;;;31.84;37.17
49947;BME280;35839;48.662;13.300;2022-07-24T13:38:30;97577.47;;;31.34;37.42
49947;BME280;35839;48.662;13.300;2022-07-24T13:40:55;97574.28;;;30.25;36.95
49947;BME280;35839;48.662;13.300;2022-07-24T13:43:20;97562.50;;;31.86;35.62
49947;BME280;35839;48.662;13.300;2022-07-24T13:45:46;97561.31;;;31.63;37.44
49947;BME280;35839;48.662;13.300;2022-07-24T13:48:11;97557.38;;;33.34;37.60
49947;BME280;35839;48.662;13.300;2022-07-24T13:50:37;97554.44;;;33.68;32.87
49947;BME280;35839;48.662;13.300;2022-07-24T13:53:03;97563.00;;;33.56;32.16
49947;BME280;35839;48.662;13.300;2022-07-24T13:55:28;97544.38;;;34.02;32.18
49947;BME280;35839;48.662;13.300;2022-07-24T13:57:55;97552.91;;;34.41;32.16
49947;BME280;35839;48.662;13.300;2022-07-24T14:00:21;97549.91;;;34.84;30.92
49947;BME280;35839;48.662;13.300;2022-07-24T14:02:46;97542.81;;;34.14;29.33
49947;BME280;35839;48.662;13.300;2022-07-24T14:05:11;97544.78;;;35.33;28.84
49947;BME280;35839;48.662;13.300;2022-07-24T14:07:37;97544.84;;;34.92;30.13
49947;BME280;35839;48.662;13.300;2022-07-24T14:10:02;97541.25;;;34.41;31.35
49947;BME280;35839;48.662;13.300;2022-07-24T14:12:28;97533.16;;;35.05;29.09
49947;BME280;35839;48.662;13.300;2022-07-24T14:14:54;97531.72;;;35.08;28.87
49947;BME280;35839;48.662;13.300;2022-07-24T14:17:19;97531.25;;;34.92;29.80
49947;BME280;35839;48.662;13.300;2022-07-24T14:19:45;97516.44;;;34.98;29.41
49947;BME280;35839;48.662;13.300;2022-07-24T14:22:10;97518.50;;;35.29;29.45
49947;BME280;35839;48.662;13.300;2022-07-24T14:24:35;97513.41;;;35.13;28.52
49947;BME280;35839;48.662;13.300;2022-07-24T14:27:01;97513.88;;;35.52;28.72
49947;BME280;35839;48.662;13.300;2022-07-24T14:29:26;97518.69;;;36.31;27.23
49947;BME280;35839;48.662;13.300;2022-07-24T14:31:51;97508.28;;;36.33;27.25
49947;BME280;35839;48.662;13.300;2022-07-24T14:34:17;97506.81;;;35.96;27.48
49947;BME280;35839;48.662;13.300;2022-07-24T14:36:43;97507.03;;;35.77;26.61
49947;BME280;35839;48.662;13.300;2022-07-24T14:39:09;97510.38;;;36.36;26.06
49947;BME280;35839;48.662;13.300;2022-07-24T14:41:35;97507.59;;;35.96;26.74
49947;BME280;35839;48.662;13.300;2022-07-24T14:44:00;97496.16;;;37.14;25.15
49947;BME280;35839;48.662;13.300;2022-07-24T14:46:26;97497.56;;;37.03;25.05
49947;BME280;35839;48.662;13.300;2022-07-24T14:48:51;97494.84;;;37.20;26.15
49947;BME280;35839;48.662;13.300;2022-07-24T14:51:17;97490.50;;;36.93;23.92
49947;BME280;35839;48.662;13.300;2022-07-24T14:53:42;97493.69;;;36.86;24.83
49947;BME280;35839;48.662;13.300;2022-07-24T14:56:07;97488.38;;;35.47;26.11
49947;BME280;35839;48.662;13.300;2022-07-24T14:58:33;97485.13;;;36.62;23.53
49947;BME280;35839;48.662;13.300;2022-07-24T15:00:58;97478.97;;;37.14;23.08
49947;BME280;35839;48.662;13.300;2022-07-24T15:03:23;97474.84;;;38.07;22.61
49947;BME280;35839;48.662;13.300;2022-07-24T15:05:49;97480.69;;;37.53;23.33
49947;BME280;35839;48.662;13.300;2022-07-24T15:08:14;97475.25;;;37.18;23.73
49947;BME280;35839;48.662;13.300;2022-07-24T15:10:39;97474.59;;;37.65;24.30
49947;BME280;35839;48.662;13.300;2022-07-24T15:13:05;97469.28;;;37.77;22.62
49947;BME280;35839;48.662;13.300;2022-07-24T15:15:30;97465.84;;;37.89;23.31
49947;BME280;35839;48.662;13.300;2022-07-24T15:17:56;97468.31;;;38.58;22.80
49947;BME280;35839;48.662;13.300;2022-07-24T15:20:21;97465.19;;;37.92;23.21
49947;BME280;35839;48.662;13.300;2022-07-24T15:22:46;97463.56;;;38.08;22.57
49947;BME280;35839;48.662;13.300;2022-07-24T15:25:12;97468.53;;;38.45;23.30
49947;BME280;35839;48.662;13.300;2022-07-24T15:27:37;97468.56;;;39.37;22.38
49947;BME280;35839;48.662;13.300;2022-07-24T15:30:03;97462.19;;;39.46;23.72
49947;BME280;35839;48.662;13.300;2022-07-24T15:32:29;97454.97;;;39.74;23.00
49947;BME280;35839;48.662;13.300;2022-07-24T15:34:54;97458.06;;;39.18;21.10
49947;BME280;35839;48.662;13.300;2022-07-24T15:37:20;97465.66;;;38.41;22.55
49947;BME280;35839;48.662;13.300;2022-07-24T15:39:45;97456.91;;;38.18;21.68
49947;BME280;35839;48.662;13.300;2022-07-24T15:42:10;97449.75;;;38.94;23.50
49947;BME280;35839;48.662;13.300;2022-07-24T15:44:36;97452.28;;;38.99;23.18
49947;BME280;35839;48.662;13.300;2022-07-24T15:47:01;97450.69;;;38.98;22.58
49947;BME280;35839;48.662;13.300;2022-07-24T15:49:27;97447.75;;;38.44;23.35
49947;BME280;35839;48.662;13.300;2022-07-24T15:51:52;97452.59;;;38.97;22.72
49947;BME280;35839;48.662;13.300;2022-07-24T15:54:17;97447.31;;;39.13;23.16
49947;BME280;35839;48.662;13.300;2022-07-24T15:56:43;97447.09;;;38.26;22.16
49947;BME280;35839;48.662;13.300;2022-07-24T15:59:08;97435.16;;;39.23;24.87
49947;BME280;35839;48.662;13.300;2022-07-24T16:01:34;97448.56;;;39.70;23.77
49947;BME280;35839;48.662;13.300;2022-07-24T16:03:59;97434.31;;;38.30;23.34
49947;BME280;35839;48.662;13.300;2022-07-24T16:06:24;97434.44;;;37.65;24.44
49947;BME280;35839;48.662;13.300;2022-07-24T16:08:50;97439.22;;;38.15;22.91
49947;BME280;35839;48.662;13.300;2022-07-24T16:11:15;97430.88;;;36.52;23.41
49947;BME280;35839;48.662;13.300;2022-07-24T16:13:41;97437.72;;;38.86;23.61
49947;BME280;35839;48.662;13.300;2022-07-24T16:16:07;97429.22;;;39.21;21.42
49947;BME280;35839;48.662;13.300;2022-07-24T16:18:33;97433.69;;;39.05;22.06
49947;BME280;35839;48.662;13.300;2022-07-24T16:21:00;97425.09;;;39.15;23.15
49947;BME280;35839;48.662;13.300;2022-07-24T16:23:27;97424.19;;;39.90;21.37
49947;BME280;35839;48.662;13.300;2022-07-24T16:25:52;97424.84;;;40.23;22.90
49947;BME280;35839;48.662;13.300;2022-07-24T16:28:17;97428.47;;;39.33;21.46
49947;BME280;35839;48.662;13.300;2022-07-24T16:30:43;97417.38;;;39.29;22.37
49947;BME280;35839;48.662;13.300;2022-07-24T16:33:08;97408.88;;;39.89;21.75
49947;BME280;35839;48.662;13.300;2022-07-24T16:35:34;97416.09;;;40.06;20.65
49947;BME280;35839;48.662;13.300;2022-07-24T16:37:59;97416.44;;;39.25;20.65
49947;BME280;35839;48.662;13.300;2022-07-24T16:40:24;97412.19;;;38.23;20.23
49947;BME280;35839;48.662;13.300;2022-07-24T16:42:50;97414.00;;;38.90;21.20
49947;BME280;35839;48.662;13.300;2022-07-24T16:45:15;97419.72;;;38.76;22.07
49947;BME280;35839;48.662;13.300;2022-07-24T16:47:40;97406.31;;;39.59;22.15
49947;BME280;35839;48.662;13.300;2022-07-24T16:50:06;97410.53;;;39.56;21.01
49947;BME280;35839;48.662;13.300;2022-07-24T16:52:31;97409.28;;;39.54;22.41
49947;BME280;35839;48.662;13.300;2022-07-24T16:54:57;97409.56;;;39.86;21.23
49947;BME280;35839;48.662;13.300;2022-07-24T16:57:22;97402.16;;;39.40;20.92
49947;BME280;35839;48.662;13.300;2022-07-24T16:59:47;97402.53;;;39.30;20.85
49947;BME280;35839;48.662;13.300;2022-07-24T17:02:13;97393.56;;;38.67;21.92
49947;BME280;35839;48.662;13.300;2022-07-24T17:04:38;97398.84;;;38.51;23.39
49947;BME280;35839;48.662;13.300;2022-07-24T17:07:04;97396.19;;;38.04;21.55
49947;BME280;35839;48.662;13.300;2022-07-24T17:09:29;97389.03;;;37.35;24.16
49947;BME280;35839;48.662;13.300;2022-07-24T17:11:54;97389.84;;;36.91;23.89
49947;BME280;35839;48.662;13.300;2022-07-24T17:14:23;97387.69;;;36.36;23.29
49947;BME280;35839;48.662;13.300;2022-07-24T17:16:48;97389.28;;;35.26;25.35
49947;BME280;35839;48.662;13.300;2022-07-24T17:19:14;97389.66;;;33.83;28.42
49947;BME280;35839;48.662;13.300;2022-07-24T17:21:39;97387.78;;;32.99;35.32
49947;BME280;35839;48.662;13.300;2022-07-24T17:24:05;97383.84;;;32.53;36.76
49947;BME280;35839;48.662;13.300;2022-07-24T17:26:30;97386.69;;;31.95;38.35
49947;BME280;35839;48.662;13.300;2022-07-24T17:28:55;97385.53;;;31.77;40.55
49947;BME280;35839;48.662;13.300;2022-07-24T17:31:21;97378.47;;;31.52;38.26
49947;BME280;35839;48.662;13.300;2022-07-24T17:33:50;97387.78;;;31.06;44.55
49947;BME280;35839;48.662;13.300;2022-07-24T17:36:16;97389.41;;;30.62;45.91
49947;BME280;35839;48.662;13.300;2022-07-24T17:38:41;97391.25;;;30.12;43.74
49947;BME280;35839;48.662;13.300;2022-07-24T17:41:07;97389.44;;;29.87;40.09
49947;BME280;35839;48.662;13.300;2022-07-24T17:43:34;97384.59;;;29.84;40.27
49947;BME280;35839;48.662;13.300;2022-07-24T17:45:59;97384.53;;;29.99;40.02
49947;BME280;35839;48.662;13.300;2022-07-24T17:48:26;97384.88;;;29.77;40.93
49947;BME280;35839;48.662;13.300;2022-07-24T17:50:52;97395.69;;;29.67;41.75
49947;BME280;35839;48.662;13.300;2022-07-24T17:53:17;97391.38;;;29.46;44.13
49947;BME280;35839;48.662;13.300;2022-07-24T17:55:43;97389.25;;;29.27;43.20
49947;BME280;35839;48.662;13.300;2022-07-24T17:58:08;97388.97;;;28.98;44.57
49947;BME280;35839;48.662;13.300;2022-07-24T18:00:34;97388.66;;;28.94;44.81
49947;BME280;35839;48.662;13.300;2022-07-24T18:02:59;97387.03;;;28.83;44.46
49947;BME280;35839;48.662;13.300;2022-07-24T18:05:24;97388.06;;;28.46;47.23
49947;BME280;35839;48.662;13.300;2022-07-24T18:07:50;97376.66;;;28.29;47.08
49947;BME280;35839;48.662;13.300;2022-07-24T18:10:15;97380.84;;;27.99;47.84
49947;BME280;35839;48.662;13.300;2022-07-24T18:12:41;97383.25;;;27.90;48.30
49947;BME280;35839;48.662;13.300;2022-07-24T18:15:07;97384.84;;;27.49;50.61
49947;BME280;35839;48.662;13.300;2022-07-24T18:17:33;97381.84;;;27.13;52.90
49947;BME280;35839;48.662;13.300;2022-07-24T18:19:59;97390.25;;;26.89;50.79
49947;BME280;35839;48.662;13.300;2022-07-24T18:22:24;97377.53;;;27.07;49.20